createdAt,value
2019-02-09T00:01:07.386Z,99588.73
2019-02-09T00:03:38.910Z,99591.04
2019-02-09T00:06:10.377Z,99582.77
2019-02-09T00:08:41.710Z,99573.17
2019-02-09T00:11:13.111Z,99569.13
2019-02-09T00:13:44.391Z,99554.27
2019-02-09T00:16:15.854Z,99552.72
2019-02-09T00:18:47.245Z,99538.69
2019-02-09T00:21:18.935Z,99533.03
2019-02-09T00:23:50.303Z,99533.22
2019-02-09T00:26:21.671Z,99526.97
2019-02-09T00:28:54.156Z,99516.59
2019-02-09T00:31:26.064Z,99519.08
2019-02-09T00:33:57.344Z,99507.77
2019-02-09T00:36:28.776Z,99508.73
2019-02-09T00:39:00.113Z,99500.52
2019-02-09T00:41:31.445Z,99492.70
2019-02-09T00:44:03.507Z,99500.66
2019-02-09T00:46:35.209Z,99495.25
2019-02-09T00:49:06.625Z,99505.27
2019-02-09T00:51:37.990Z,99502.70
2019-02-09T00:54:09.311Z,99500.39
2019-02-09T00:56:40.691Z,99493.20
2019-02-09T00:59:17.454Z,99500.17
2019-02-09T01:01:48.807Z,99487.06
2019-02-09T01:04:20.187Z,99492.14
2019-02-09T01:06:51.442Z,99483.70
2019-02-09T01:09:23.112Z,99478.30
2019-02-09T01:11:54.896Z,99474.66
2019-02-09T01:14:27.617Z,99478.94
2019-02-09T01:16:59.865Z,99469.44
2019-02-09T01:19:31.765Z,99463.75
2019-02-09T01:22:03.057Z,99465.56
2019-02-09T01:24:34.441Z,99463.38
2019-02-09T01:27:05.923Z,99451.21
2019-02-09T01:29:37.217Z,99441.97
2019-02-09T01:32:08.561Z,99441.84
2019-02-09T01:34:40.215Z,99436.11
2019-02-09T01:37:11.836Z,99432.13
2019-02-09T01:39:43.151Z,99423.88
2019-02-09T01:42:14.571Z,99424.34
2019-02-09T01:44:45.854Z,99413.32
2019-02-09T01:47:17.198Z,99415.59
2019-02-09T01:49:48.543Z,99406.59
2019-02-09T01:52:19.872Z,99404.43
2019-02-09T01:54:51.235Z,99393.55
2019-02-09T01:57:22.585Z,99396.63
2019-02-09T01:59:54.500Z,99397.62
2019-02-09T02:02:26.387Z,99395.74
2019-02-09T02:04:58.489Z,99384.15
2019-02-09T02:07:31.837Z,99381.47
2019-02-09T02:10:03.916Z,99377.77
2019-02-09T02:12:36.129Z,99364.75
2019-02-09T02:15:12.984Z,99375.02
2019-02-09T02:17:45.513Z,99360.52
2019-02-09T02:20:21.211Z,99347.63
2019-02-09T02:22:53.438Z,99339.45
2019-02-09T02:25:25.794Z,99341.59
2019-02-09T02:27:58.108Z,99336.97
2019-02-09T02:30:33.159Z,99332.13
2019-02-09T02:33:05.263Z,99334.80
2019-02-09T02:35:37.515Z,99318.30
2019-02-09T02:38:10.214Z,99318.30
2019-02-09T02:40:43.785Z,99309.50
2019-02-09T02:43:16.127Z,99314.37
2019-02-09T02:45:48.165Z,99313.59
2019-02-09T02:48:20.421Z,99304.47
2019-02-09T02:50:52.088Z,99301.44
2019-02-09T02:53:24.174Z,99305.04
2019-02-09T02:55:55.709Z,99309.68
2019-02-09T02:58:27.548Z,99290.69
2019-02-09T03:00:59.494Z,99282.91
2019-02-09T03:03:31.132Z,99284.71
2019-02-09T03:06:02.877Z,99281.30
2019-02-09T03:08:35.035Z,99279.42
2019-02-09T03:11:06.892Z,99269.56
2019-02-09T03:13:38.555Z,99283.67
2019-02-09T03:16:10.201Z,99268.63
2019-02-09T03:18:42.456Z,99271.46
2019-02-09T03:21:14.739Z,99275.89
2019-02-09T03:23:46.335Z,99278.98
2019-02-09T03:26:17.973Z,99272.94
2019-02-09T03:28:49.659Z,99268.51
2019-02-09T03:31:21.697Z,99267.57
2019-02-09T03:33:53.663Z,99263.84
2019-02-09T03:36:25.492Z,99257.41
2019-02-09T03:38:58.057Z,99259.52
2019-02-09T03:41:29.663Z,99253.50
2019-02-09T03:44:01.275Z,99254.70
2019-02-09T03:46:33.214Z,99260.36
2019-02-09T03:49:04.697Z,99248.70
2019-02-09T03:51:36.417Z,99258.19
2019-02-09T03:54:08.386Z,99272.78
2019-02-09T03:56:40.056Z,99266.86
2019-02-09T03:59:12.002Z,99274.02
2019-02-09T04:01:43.295Z,99264.25
2019-02-09T04:04:14.832Z,99259.70
2019-02-09T04:06:46.482Z,99259.35
2019-02-09T04:09:18.652Z,99263.77
2019-02-09T04:11:49.993Z,99268.17
2019-02-09T04:14:21.384Z,99272.22
2019-02-09T04:16:52.788Z,99280.06
2019-02-09T04:19:24.992Z,99283.50
2019-02-09T04:21:56.353Z,99271.94
2019-02-09T04:24:28.021Z,99271.94
2019-02-09T04:26:59.356Z,99279.53
2019-02-09T04:29:30.695Z,99273.58
2019-02-09T04:32:01.986Z,99290.53
2019-02-09T04:34:33.270Z,99277.27
2019-02-09T04:37:04.810Z,99267.88
2019-02-09T04:39:36.147Z,99276.55
2019-02-09T04:42:07.776Z,99258.56
2019-02-09T04:44:39.139Z,99254.73
2019-02-09T04:47:10.474Z,99258.34
2019-02-09T04:49:41.718Z,99252.41
2019-02-09T04:52:13.111Z,99253.27
2019-02-09T04:54:44.521Z,99261.13
2019-02-09T04:57:15.823Z,99260.32
2019-02-09T04:59:47.920Z,99267.50
2019-02-09T05:02:19.993Z,99266.64
2019-02-09T05:04:51.612Z,99261.07
2019-02-09T05:07:22.984Z,99265.03
2019-02-09T05:09:54.556Z,99261.19
2019-02-09T05:12:26.201Z,99269.05
2019-02-09T05:14:57.566Z,99254.00
2019-02-09T05:17:29.204Z,99254.00
2019-02-09T05:20:00.503Z,99260.56
2019-02-09T05:22:32.008Z,99256.67
2019-02-09T05:25:04.575Z,99257.09
2019-02-09T05:27:36.050Z,99251.16
2019-02-09T05:30:16.153Z,99259.02
2019-02-09T05:32:47.667Z,99262.13
2019-02-09T05:35:19.607Z,99268.59
2019-02-09T05:37:50.925Z,99262.97
2019-02-09T05:40:23.560Z,99250.44
2019-02-09T05:42:56.229Z,99259.17
2019-02-09T05:45:29.222Z,99264.32
2019-02-09T05:48:00.618Z,99252.17
2019-02-09T05:50:32.160Z,99256.94
2019-02-09T05:53:03.549Z,99251.16
2019-02-09T05:55:35.162Z,99255.97
2019-02-09T05:58:06.454Z,99252.88
2019-02-09T06:00:43.703Z,99258.51
2019-02-09T06:03:15.100Z,99251.08
2019-02-09T06:05:46.589Z,99242.03
2019-02-09T06:08:18.310Z,99243.70
2019-02-09T06:10:49.985Z,99250.11
2019-02-09T06:13:21.322Z,99254.92
2019-02-09T06:15:53.044Z,99252.82
2019-02-09T06:18:24.627Z,99265.45
2019-02-09T06:20:56.915Z,99271.78
2019-02-09T06:23:28.309Z,99262.66
2019-02-09T06:26:03.608Z,99269.60
2019-02-09T06:28:34.031Z,99265.20
2019-02-09T06:31:05.813Z,99274.64
2019-02-09T06:33:37.305Z,99269.00
2019-02-09T06:36:08.878Z,99268.57
2019-02-09T06:38:40.514Z,99269.92
2019-02-09T06:41:11.803Z,99271.66
2019-02-09T06:43:43.434Z,99281.52
2019-02-09T06:46:14.794Z,99285.41
2019-02-09T06:48:46.299Z,99273.71
2019-02-09T06:51:17.560Z,99273.27
2019-02-09T06:53:48.880Z,99273.76
2019-02-09T06:56:20.180Z,99269.11
2019-02-09T06:58:52.099Z,99258.39
2019-02-09T07:01:23.489Z,99264.45
2019-02-09T07:03:55.156Z,99265.06
2019-02-09T07:06:26.488Z,99275.35
2019-02-09T07:08:57.824Z,99283.92
2019-02-09T07:11:29.747Z,99285.81
2019-02-09T07:14:01.038Z,99288.03
2019-02-09T07:16:34.155Z,99298.81
2019-02-09T07:19:05.737Z,99305.38
2019-02-09T07:21:37.234Z,99300.11
2019-02-09T07:24:08.569Z,99307.70
2019-02-09T07:26:39.892Z,99306.72
2019-02-09T07:29:11.227Z,99304.98
2019-02-09T07:31:42.567Z,99304.01
2019-02-09T07:34:13.956Z,99312.56
2019-02-09T07:36:45.537Z,99314.78
2019-02-09T07:39:17.070Z,99313.22
2019-02-09T07:41:48.733Z,99322.21
2019-02-09T07:44:20.066Z,99312.67
2019-02-09T07:46:51.945Z,99323.08
2019-02-09T07:49:23.701Z,99322.05
2019-02-09T07:51:54.991Z,99328.48
2019-02-09T07:54:26.617Z,99321.16
2019-02-09T07:56:57.897Z,99324.84
2019-02-09T07:59:29.262Z,99324.83
2019-02-09T08:02:04.666Z,99335.50
2019-02-09T08:04:33.999Z,99333.38
2019-02-09T08:07:06.330Z,99337.34
2019-02-09T08:09:38.711Z,99342.06
2019-02-09T08:12:10.567Z,99343.38
2019-02-09T08:14:42.569Z,99343.73
2019-02-09T08:17:13.884Z,99344.72
2019-02-09T08:19:45.208Z,99351.31
2019-02-09T08:22:16.496Z,99366.92
2019-02-09T08:24:48.255Z,99361.21
2019-02-09T08:27:23.520Z,99370.64
2019-02-09T08:29:53.140Z,99371.02
2019-02-09T08:32:24.753Z,99366.28
2019-02-09T08:34:56.340Z,99370.41
2019-02-09T08:37:28.018Z,99369.69
2019-02-09T08:40:00.272Z,99383.47
2019-02-09T08:42:32.218Z,99382.58
2019-02-09T08:45:03.977Z,99379.41
2019-02-09T08:47:35.401Z,99386.05
2019-02-09T08:50:10.198Z,99386.98
2019-02-09T08:52:41.482Z,99383.07
2019-02-09T08:55:13.473Z,99375.63
2019-02-09T08:57:45.068Z,99374.48
2019-02-09T09:00:20.255Z,99378.45
2019-02-09T09:02:51.871Z,99377.33
2019-02-09T09:05:24.134Z,99382.19
2019-02-09T09:07:57.966Z,99390.55
2019-02-09T09:10:30.513Z,99382.66
2019-02-09T09:13:02.266Z,99382.16
2019-02-09T09:15:41.188Z,99382.45
2019-02-09T09:18:12.728Z,99387.88
2019-02-09T09:20:48.208Z,99385.02
2019-02-09T09:23:19.782Z,99392.44
2019-02-09T09:25:51.499Z,99385.52
2019-02-09T09:28:23.110Z,99396.50
2019-02-09T09:30:54.457Z,99390.83
2019-02-09T09:33:26.518Z,99386.80
2019-02-09T09:35:57.852Z,99394.60
2019-02-09T09:38:29.504Z,99393.75
2019-02-09T09:41:00.849Z,99394.88
2019-02-09T09:43:33.986Z,99384.20
2019-02-09T09:46:06.346Z,99393.30
2019-02-09T09:48:37.645Z,99413.53
2019-02-09T09:51:09.341Z,99428.20
2019-02-09T09:53:41.018Z,99431.47
2019-02-09T09:56:14.299Z,99435.56
2019-02-09T09:58:46.307Z,99431.47
2019-02-09T10:01:17.619Z,99438.66
2019-02-09T10:03:48.940Z,99449.43
2019-02-09T10:06:20.302Z,99440.11
2019-02-09T10:08:53.006Z,99452.83
2019-02-09T10:11:24.772Z,99440.84
2019-02-09T10:13:56.084Z,99453.20
2019-02-09T10:16:27.461Z,99455.70
2019-02-09T10:18:58.789Z,99455.72
2019-02-09T10:21:30.515Z,99450.86
2019-02-09T10:24:01.823Z,99455.64
2019-02-09T10:26:33.098Z,99454.41
2019-02-09T10:29:04.446Z,99444.88
2019-02-09T10:31:35.752Z,99451.94
2019-02-09T10:34:07.123Z,99457.39
2019-02-09T10:36:38.523Z,99455.95
2019-02-09T10:39:11.688Z,99474.20
2019-02-09T10:41:43.075Z,99462.73
2019-02-09T10:44:15.768Z,99456.27
2019-02-09T10:46:47.516Z,99465.56
2019-02-09T10:49:19.337Z,99471.59
2019-02-09T10:51:50.698Z,99472.77
2019-02-09T10:54:21.974Z,99461.84
2019-02-09T10:56:53.672Z,99492.53
2019-02-09T10:59:25.366Z,99474.02
2019-02-09T11:01:57.521Z,99474.53
2019-02-09T11:04:29.183Z,99467.66
2019-02-09T11:07:01.170Z,99463.21
2019-02-09T11:09:33.540Z,99478.05
2019-02-09T11:12:05.144Z,99469.17
2019-02-09T11:14:36.917Z,99461.61
2019-02-09T11:17:08.526Z,99463.95
2019-02-09T11:19:39.892Z,99453.75
2019-02-09T11:22:11.268Z,99480.63
2019-02-09T11:24:42.581Z,99473.09
2019-02-09T11:27:14.632Z,99487.42
2019-02-09T11:29:46.512Z,99484.30
2019-02-09T11:32:17.878Z,99472.57
2019-02-09T11:34:49.583Z,99485.02
2019-02-09T11:37:21.254Z,99480.63
2019-02-09T11:39:52.539Z,99479.53
2019-02-09T11:42:24.668Z,99471.04
2019-02-09T11:44:56.371Z,99477.62
2019-02-09T11:47:27.875Z,99487.34
2019-02-09T11:49:59.701Z,99478.87
2019-02-09T11:52:31.090Z,99489.14
2019-02-09T11:55:02.792Z,99475.97
2019-02-09T11:57:34.776Z,99488.49
2019-02-09T12:00:15.477Z,99474.75
2019-02-09T12:02:46.788Z,99463.44
2019-02-09T12:05:18.154Z,99464.45
2019-02-09T12:07:49.628Z,99463.33
2019-02-09T12:10:21.974Z,99472.56
2019-02-09T12:12:53.306Z,99467.48
2019-02-09T12:15:35.432Z,99455.70
2019-02-09T12:18:08.666Z,99488.98
2019-02-09T12:20:40.124Z,99503.38
2019-02-09T12:23:11.904Z,99493.10
2019-02-09T12:25:44.238Z,99485.70
2019-02-09T12:28:16.634Z,99495.52
2019-02-09T12:30:48.013Z,99494.12
2019-02-09T12:33:23.021Z,99509.39
2019-02-09T12:35:55.525Z,99499.54
2019-02-09T12:38:27.102Z,99494.17
2019-02-09T12:40:58.628Z,99488.45
2019-02-09T12:43:30.119Z,99478.38
2019-02-09T12:46:02.824Z,99474.63
2019-02-09T12:48:34.553Z,99466.02
2019-02-09T12:51:05.786Z,99459.20
2019-02-09T12:53:37.261Z,99461.73
2019-02-09T12:56:08.975Z,99452.48
2019-02-09T12:58:41.190Z,99450.94
2019-02-09T13:01:12.890Z,99448.70
2019-02-09T13:03:44.928Z,99455.81
2019-02-09T13:06:16.652Z,99451.73
2019-02-09T13:08:48.392Z,99448.95
2019-02-09T13:11:19.709Z,99444.99
2019-02-09T13:13:50.979Z,99450.97
2019-02-09T13:16:22.638Z,99436.23
2019-02-09T13:18:55.254Z,99464.00
2019-02-09T13:21:26.978Z,99447.81
2019-02-09T13:23:58.269Z,99443.70
2019-02-09T13:26:30.658Z,99457.97
2019-02-09T13:29:02.493Z,99458.27
2019-02-09T13:31:33.767Z,99460.95
2019-02-09T13:34:05.729Z,99466.89
2019-02-09T13:36:37.056Z,99457.01
2019-02-09T13:39:10.127Z,99464.05
2019-02-09T13:41:41.684Z,99467.88
2019-02-09T13:44:13.044Z,99477.91
2019-02-09T13:46:44.360Z,99478.94
2019-02-09T13:49:15.711Z,99468.09
2019-02-09T13:51:46.957Z,99469.58
2019-02-09T13:54:18.621Z,99488.57
2019-02-09T13:56:49.985Z,99470.35
2019-02-09T13:59:21.569Z,99480.45
2019-02-09T14:01:53.222Z,99475.82
2019-02-09T14:04:24.583Z,99466.36
2019-02-09T14:06:55.847Z,99476.05
2019-02-09T14:09:27.195Z,99483.09
2019-02-09T14:11:58.567Z,99484.90
2019-02-09T14:14:30.623Z,99486.15
2019-02-09T14:17:02.248Z,99498.77
2019-02-09T14:19:33.888Z,99499.91
2019-02-09T14:22:05.179Z,99500.36
2019-02-09T14:24:36.548Z,99503.33
2019-02-09T14:27:07.996Z,99503.39
2019-02-09T14:29:39.380Z,99492.93
2019-02-09T14:32:11.297Z,99492.66
2019-02-09T14:34:43.974Z,99497.47
2019-02-09T14:37:15.302Z,99495.36
2019-02-09T14:39:47.078Z,99489.30
2019-02-09T14:42:18.721Z,99499.80
2019-02-09T14:44:50.953Z,99487.27
2019-02-09T14:47:30.275Z,99488.98
2019-02-09T14:50:11.131Z,99489.27
2019-02-09T14:52:37.980Z,99488.34
2019-02-09T14:55:11.485Z,99500.17
2019-02-09T14:57:43.478Z,99486.12
2019-02-09T15:00:19.508Z,99493.58
2019-02-09T15:02:53.999Z,99492.66
2019-02-09T15:05:24.198Z,99491.10
2019-02-09T15:07:55.913Z,99496.05
2019-02-09T15:10:27.251Z,99496.05
2019-02-09T15:12:58.897Z,99501.22
2019-02-09T15:15:35.390Z,99484.81
2019-02-09T15:18:09.559Z,99482.90
2019-02-09T15:20:46.627Z,99475.25
2019-02-09T15:23:19.550Z,99481.37
2019-02-09T15:25:51.129Z,99461.30
2019-02-09T15:28:23.616Z,99457.84
2019-02-09T15:30:55.691Z,99455.76
2019-02-09T15:33:27.531Z,99447.20
2019-02-09T15:35:59.505Z,99457.63
2019-02-09T15:38:31.356Z,99467.16
2019-02-09T15:41:03.145Z,99486.42
2019-02-09T15:43:35.541Z,99531.41
2019-02-09T15:46:07.780Z,99593.57
2019-02-09T15:48:40.228Z,99590.75
2019-02-09T15:51:12.591Z,99593.20
2019-02-09T15:53:44.529Z,99572.91
2019-02-09T15:56:17.142Z,99578.84
2019-02-09T15:58:50.272Z,99561.17
2019-02-09T16:01:38.968Z,99581.09
2019-02-09T16:04:17.542Z,99575.58
2019-02-09T16:07:02.825Z,99580.41
2019-02-09T16:09:44.418Z,99581.34
2019-02-09T16:12:21.027Z,99579.98
2019-02-09T16:14:58.763Z,99595.20
2019-02-09T16:17:49.874Z,99598.95
2019-02-09T16:20:28.063Z,99598.02
2019-02-09T16:23:13.460Z,99606.45
2019-02-09T16:25:47.855Z,99591.67
2019-02-09T16:28:23.017Z,99600.42
2019-02-09T16:31:12.675Z,99608.73
2019-02-09T16:33:53.806Z,99606.19
2019-02-09T16:36:33.883Z,99605.97
2019-02-09T16:39:17.906Z,99616.34
2019-02-09T16:42:06.849Z,99601.66
2019-02-09T16:44:42.457Z,99601.66
2019-02-09T16:47:25.137Z,99621.98
2019-02-09T16:50:12.165Z,99618.07
2019-02-09T16:52:46.253Z,99618.61
2019-02-09T16:55:23.968Z,99629.41
2019-02-09T16:58:00.151Z,99622.08
2019-02-09T17:00:45.240Z,99628.53
2019-02-09T17:03:18.215Z,99632.56
2019-02-09T17:06:06.846Z,99625.13
2019-02-09T17:08:47.619Z,99617.84
2019-02-09T17:11:22.897Z,99634.23
2019-02-09T17:14:12.020Z,99629.08
2019-02-09T17:16:47.522Z,99655.61
2019-02-09T17:19:34.512Z,99637.52
2019-02-09T17:22:15.146Z,99639.12
2019-02-09T17:25:09.369Z,99648.71
2019-02-09T17:27:57.928Z,99649.25
2019-02-09T17:30:37.266Z,99643.84
2019-02-09T17:33:22.592Z,99650.06
2019-02-09T17:36:02.859Z,99651.98
2019-02-09T17:38:45.566Z,99651.99
2019-02-09T17:41:33.657Z,99648.52
2019-02-09T17:44:13.136Z,99656.27
2019-02-09T17:46:55.505Z,99659.23
2019-02-09T17:49:38.201Z,99660.05
2019-02-09T17:52:23.750Z,99675.72
2019-02-09T17:54:57.483Z,99673.98
2019-02-09T17:57:32.484Z,99676.44
2019-02-09T18:00:15.670Z,99688.58
2019-02-09T18:02:59.973Z,99684.19
2019-02-09T18:05:48.831Z,99684.53
2019-02-09T18:08:27.549Z,99685.84
2019-02-09T18:11:07.698Z,99697.86
2019-02-09T18:13:43.390Z,99697.20
2019-02-09T18:16:35.480Z,99702.50
2019-02-09T18:19:24.104Z,99712.19
2019-02-09T18:22:03.280Z,99708.96
2019-02-09T18:24:49.367Z,99702.28
2019-02-09T18:27:27.449Z,99712.92
2019-02-09T18:30:04.650Z,99709.30
2019-02-09T18:36:05.694Z,99721.46
2019-02-09T18:38:37.008Z,99718.42
2019-02-09T18:41:08.332Z,99718.51
2019-02-09T18:43:40.161Z,99712.83
2019-02-09T18:46:11.724Z,99725.31
2019-02-09T18:48:43.038Z,99712.87
2019-02-09T18:51:14.519Z,99739.14
2019-02-09T18:53:46.474Z,99740.44
2019-02-09T18:56:17.778Z,99738.70
2019-02-09T18:58:49.514Z,99733.49
2019-02-09T19:01:20.891Z,99740.05
2019-02-09T19:03:52.822Z,99745.73
2019-02-09T19:06:24.171Z,99752.16
2019-02-09T19:08:55.819Z,99734.45
2019-02-09T19:11:27.115Z,99744.86
2019-02-09T19:13:58.984Z,99743.56
2019-02-09T19:16:30.388Z,99737.53
2019-02-09T19:19:01.656Z,99738.09
2019-02-09T19:21:33.581Z,99740.83
2019-02-09T19:24:05.005Z,99737.88
2019-02-09T19:26:36.676Z,99737.09
2019-02-09T19:29:08.014Z,99739.82
2019-02-09T19:31:39.586Z,99751.33
2019-02-09T19:34:10.904Z,99739.27
2019-02-09T19:36:42.378Z,99736.74
2019-02-09T19:39:13.767Z,99742.22
2019-02-09T19:41:45.012Z,99742.00
2019-02-09T19:44:17.743Z,99735.23
2019-02-09T19:46:49.077Z,99746.44
2019-02-09T19:49:20.352Z,99754.41
2019-02-09T19:51:52.183Z,99742.66
2019-02-09T19:54:23.819Z,99762.80
2019-02-09T19:56:55.938Z,99757.33
2019-02-09T19:59:27.292Z,99764.31
2019-02-09T20:01:58.600Z,99763.41
2019-02-09T20:04:30.605Z,99775.60
2019-02-09T20:07:02.433Z,99765.44
2019-02-09T20:09:33.745Z,99782.15
2019-02-09T20:12:05.374Z,99791.22
2019-02-09T20:14:36.702Z,99797.73
2019-02-09T20:17:08.475Z,99797.73
2019-02-09T20:19:39.838Z,99800.34
2019-02-09T20:22:11.215Z,99802.52
2019-02-09T20:24:42.811Z,99804.20
2019-02-09T20:27:14.437Z,99809.82
2019-02-09T20:29:46.152Z,99809.77
2019-02-09T20:32:17.530Z,99814.55
2019-02-09T20:34:48.797Z,99809.80
2019-02-09T20:37:20.799Z,99822.67
2019-02-09T20:39:52.592Z,99814.51
2019-02-09T20:42:24.055Z,99819.80
2019-02-09T20:44:55.462Z,99825.79
2019-02-09T20:47:27.191Z,99817.55
2019-02-09T20:49:58.449Z,99827.45
2019-02-09T20:52:30.174Z,99824.02
2019-02-09T20:55:01.492Z,99833.92
2019-02-09T20:57:32.766Z,99831.70
2019-02-09T21:00:07.904Z,99832.22
2019-02-09T21:02:39.238Z,99831.28
2019-02-09T21:05:10.743Z,99833.01
2019-02-09T21:07:42.101Z,99831.70
2019-02-09T21:10:22.852Z,99839.91
2019-02-09T21:12:54.647Z,99834.70
2019-02-09T21:15:27.645Z,99841.17
2019-02-09T21:17:59.434Z,99831.66
2019-02-09T21:20:30.714Z,99830.36
2019-02-09T21:23:02.061Z,99830.02
2019-02-09T21:25:35.914Z,99826.89
2019-02-09T21:28:07.382Z,99837.79
2019-02-09T21:30:38.757Z,99842.44
2019-02-09T21:33:10.013Z,99845.12
2019-02-09T21:35:44.038Z,99842.52
2019-02-09T21:38:14.490Z,99833.41
2019-02-09T21:40:46.174Z,99832.05
2019-02-09T21:43:17.533Z,99831.22
2019-02-09T21:45:48.899Z,99823.06
2019-02-09T21:48:20.849Z,99834.52
2019-02-09T21:50:52.882Z,99827.88
2019-02-09T21:53:24.202Z,99829.73
2019-02-09T21:55:55.769Z,99832.74
2019-02-09T21:58:27.196Z,99838.94
2019-02-09T22:00:58.708Z,99825.91
2019-02-09T22:03:30.444Z,99830.64
2019-02-09T22:06:02.495Z,99824.65
2019-02-09T22:08:33.861Z,99829.10
2019-02-09T22:11:05.184Z,99827.37
2019-02-09T22:13:36.455Z,99832.61
2019-02-09T22:16:08.964Z,99827.88
2019-02-09T22:18:40.442Z,99826.06
2019-02-09T22:21:11.946Z,99826.50
2019-02-09T22:23:43.594Z,99822.73
2019-02-09T22:26:14.973Z,99829.28
2019-02-09T22:28:46.267Z,99820.17
2019-02-09T22:31:21.912Z,99818.87
2019-02-09T22:33:50.671Z,99827.55
2019-02-09T22:36:21.948Z,99826.21
2019-02-09T22:38:53.259Z,99818.40
2019-02-09T22:41:24.545Z,99823.24
2019-02-09T22:43:56.215Z,99822.34
2019-02-09T22:46:27.713Z,99818.50
2019-02-09T22:48:59.377Z,99826.75
2019-02-09T22:51:30.709Z,99836.08
2019-02-09T22:54:02.061Z,99827.00
2019-02-09T22:56:33.327Z,99837.56
2019-02-09T22:59:05.110Z,99835.42
2019-02-09T23:01:49.763Z,99839.66
2019-02-09T23:05:08.430Z,99844.40
2019-02-09T23:07:39.919Z,99838.36
2019-02-09T23:10:14.668Z,99846.20
2019-02-09T23:12:48.754Z,99842.33
2019-02-09T23:15:19.750Z,99840.63
2019-02-09T23:17:51.374Z,99851.47
2019-02-09T23:20:23.061Z,99854.55
2019-02-09T23:22:54.728Z,99856.66
2019-02-09T23:25:26.448Z,99850.27
2019-02-09T23:27:58.012Z,99852.44
2019-02-09T23:30:29.662Z,99852.91
2019-02-09T23:33:01.346Z,99852.44
2019-02-09T23:35:32.615Z,99863.34
2019-02-09T23:38:04.225Z,99862.48
2019-02-09T23:40:36.429Z,99854.61
2019-02-09T23:43:08.498Z,99857.73
2019-02-09T23:45:40.250Z,99844.63
2019-02-09T23:48:11.553Z,99845.53
2019-02-09T23:50:43.986Z,99838.63
2019-02-09T23:53:16.282Z,99835.42
2019-02-09T23:55:47.928Z,99825.58
2019-02-09T23:58:19.831Z,99827.01
